sensor_id;sensor_type;location;lat;lon;timestamp;temperature;humidity
16829;DHT22;8531;48.078;11.968;2022-11-22T00:00:40;2.90;99.90
16829;DHT22;8531;48.078;11.968;2022-11-22T00:03:06;2.90;99.90
16829;DHT22;8531;48.078;11.968;2022-11-22T00:05:32;3.00;99.90
16829;DHT22;8531;48.078;11.968;2022-11-22T00:07:57;3.10;99.90
16829;DHT22;8531;48.078;11.968;2022-11-22T00:10:23;3.10;99.90
16829;DHT22;8531;48.078;11.968;2022-11-22T00:12:49;3.10;99.90
16829;DHT22;8531;48.078;11.968;2022-11-22T00:15:14;2.90;99.90
16829;DHT22;8531;48.078;11.968;2022-11-22T00:17:40;2.80;99.90
16829;DHT22;8531;48.078;11.968;2022-11-22T00:20:07;2.70;99.90
16829;DHT22;8531;48.078;11.968;2022-11-22T00:22:35;2.70;99.90
16829;DHT22;8531;48.078;11.968;2022-11-22T00:25:00;2.70;99.90
16829;DHT22;8531;48.078;11.968;2022-11-22T00:27:26;2.70;99.90
16829;DHT22;8531;48.078;11.968;2022-11-22T00:29:52;2.80;99.90
16829;DHT22;8531;48.078;11.968;2022-11-22T00:32:17;2.90;99.90
16829;DHT22;8531;48.078;11.968;2022-11-22T00:34:43;3.00;99.90
16829;DHT22;8531;48.078;11.968;2022-11-22T00:37:09;3.00;99.90
16829;DHT22;8531;48.078;11.968;2022-11-22T00:39:34;3.10;99.90
16829;DHT22;8531;48.078;11.968;2022-11-22T00:42:00;3.20;99.90
16829;DHT22;8531;48.078;11.968;2022-11-22T00:44:26;3.00;99.90
16829;DHT22;8531;48.078;11.968;2022-11-22T00:46:52;3.10;99.90
16829;DHT22;8531;48.078;11.968;2022-11-22T00:49:17;3.00;99.90
16829;DHT22;8531;48.078;11.968;2022-11-22T00:51:43;3.10;99.90
16829;DHT22;8531;48.078;11.968;2022-11-22T00:54:09;3.10;99.90
16829;DHT22;8531;48.078;11.968;2022-11-22T00:56:34;3.10;99.90
16829;DHT22;8531;48.078;11.968;2022-11-22T00:59:00;3.10;99.90
16829;DHT22;8531;48.078;11.968;2022-11-22T01:01:26;3.10;99.90
16829;DHT22;8531;48.078;11.968;2022-11-22T01:03:52;3.20;99.90
16829;DHT22;8531;48.078;11.968;2022-11-22T01:06:18;3.20;99.90
16829;DHT22;8531;48.078;11.968;2022-11-22T01:08:44;3.20;99.90
16829;DHT22;8531;48.078;11.968;2022-11-22T01:11:10;3.20;99.90
16829;DHT22;8531;48.078;11.968;2022-11-22T01:13:36;3.20;99.90
16829;DHT22;8531;48.078;11.968;2022-11-22T01:16:04;3.20;99.90
16829;DHT22;8531;48.078;11.968;2022-11-22T01:18:30;3.20;99.90
16829;DHT22;8531;48.078;11.968;2022-11-22T01:20:56;3.20;99.90
16829;DHT22;8531;48.078;11.968;2022-11-22T01:23:22;3.20;99.90
16829;DHT22;8531;48.078;11.968;2022-11-22T01:25:48;3.30;99.90
16829;DHT22;8531;48.078;11.968;2022-11-22T01:28:14;3.20;99.90
16829;DHT22;8531;48.078;11.968;2022-11-22T01:30:41;3.30;99.90
16829;DHT22;8531;48.078;11.968;2022-11-22T01:33:07;3.20;99.90
16829;DHT22;8531;48.078;11.968;2022-11-22T01:35:32;3.10;99.90
16829;DHT22;8531;48.078;11.968;2022-11-22T01:37:58;3.10;99.90
16829;DHT22;8531;48.078;11.968;2022-11-22T01:40:24;3.10;99.90
16829;DHT22;8531;48.078;11.968;2022-11-22T01:50:34;2.90;99.90
16829;DHT22;8531;48.078;11.968;2022-11-22T01:53:05;2.90;99.90
16829;DHT22;8531;48.078;11.968;2022-11-22T01:55:32;2.90;99.90
16829;DHT22;8531;48.078;11.968;2022-11-22T01:57:59;2.80;99.90
16829;DHT22;8531;48.078;11.968;2022-11-22T02:00:25;2.80;99.90
16829;DHT22;8531;48.078;11.968;2022-11-22T02:02:56;2.90;99.90
16829;DHT22;8531;48.078;11.968;2022-11-22T02:05:26;2.90;99.90
16829;DHT22;8531;48.078;11.968;2022-11-22T02:07:57;2.90;99.90
16829;DHT22;8531;48.078;11.968;2022-11-22T02:10:28;2.80;99.90
16829;DHT22;8531;48.078;11.968;2022-11-22T02:12:57;2.90;99.90
16829;DHT22;8531;48.078;11.968;2022-11-22T02:15:23;2.90;99.90
16829;DHT22;8531;48.078;11.968;2022-11-22T02:17:49;3.00;99.90
16829;DHT22;8531;48.078;11.968;2022-11-22T02:20:15;3.10;99.90
16829;DHT22;8531;48.078;11.968;2022-11-22T02:22:53;3.10;99.90
16829;DHT22;8531;48.078;11.968;2022-11-22T02:25:31;3.20;99.90
16829;DHT22;8531;48.078;11.968;2022-11-22T02:27:58;3.30;99.90
16829;DHT22;8531;48.078;11.968;2022-11-22T02:30:24;3.30;99.90
16829;DHT22;8531;48.078;11.968;2022-11-22T02:32:49;3.20;99.90
16829;DHT22;8531;48.078;11.968;2022-11-22T02:35:18;3.20;99.90
16829;DHT22;8531;48.078;11.968;2022-11-22T02:37:45;3.30;99.90
16829;DHT22;8531;48.078;11.968;2022-11-22T02:40:13;3.30;99.90
16829;DHT22;8531;48.078;11.968;2022-11-22T02:42:41;3.30;99.90
16829;DHT22;8531;48.078;11.968;2022-11-22T02:45:08;3.30;99.90
16829;DHT22;8531;48.078;11.968;2022-11-22T02:47:34;3.30;99.90
16829;DHT22;8531;48.078;11.968;2022-11-22T02:50:00;3.30;99.90
16829;DHT22;8531;48.078;11.968;2022-11-22T02:52:26;3.30;99.90
16829;DHT22;8531;48.078;11.968;2022-11-22T02:54:51;3.30;99.90
16829;DHT22;8531;48.078;11.968;2022-11-22T02:57:17;3.30;99.90
16829;DHT22;8531;48.078;11.968;2022-11-22T02:59:43;3.40;99.90
16829;DHT22;8531;48.078;11.968;2022-11-22T03:02:08;3.40;99.90
16829;DHT22;8531;48.078;11.968;2022-11-22T03:04:34;3.40;99.90
16829;DHT22;8531;48.078;11.968;2022-11-22T03:07:00;3.50;99.90
16829;DHT22;8531;48.078;11.968;2022-11-22T03:09:27;3.60;99.90
16829;DHT22;8531;48.078;11.968;2022-11-22T03:11:53;3.60;99.90
16829;DHT22;8531;48.078;11.968;2022-11-22T03:14:19;3.60;99.90
16829;DHT22;8531;48.078;11.968;2022-11-22T03:16:45;3.60;99.90
16829;DHT22;8531;48.078;11.968;2022-11-22T03:19:12;3.60;99.90
16829;DHT22;8531;48.078;11.968;2022-11-22T03:21:39;3.70;99.90
16829;DHT22;8531;48.078;11.968;2022-11-22T03:24:05;3.70;99.90
16829;DHT22;8531;48.078;11.968;2022-11-22T03:26:31;3.70;99.90
16829;DHT22;8531;48.078;11.968;2022-11-22T03:28:57;3.70;99.90
16829;DHT22;8531;48.078;11.968;2022-11-22T03:31:23;3.70;99.90
16829;DHT22;8531;48.078;11.968;2022-11-22T03:33:50;3.60;99.90
16829;DHT22;8531;48.078;11.968;2022-11-22T03:36:15;3.70;99.90
16829;DHT22;8531;48.078;11.968;2022-11-22T03:38:41;3.60;99.90
16829;DHT22;8531;48.078;11.968;2022-11-22T03:41:07;3.70;99.90
16829;DHT22;8531;48.078;11.968;2022-11-22T03:43:32;3.70;99.90
16829;DHT22;8531;48.078;11.968;2022-11-22T03:45:58;3.70;99.90
16829;DHT22;8531;48.078;11.968;2022-11-22T03:48:24;3.70;99.90
16829;DHT22;8531;48.078;11.968;2022-11-22T03:50:49;3.80;99.90
16829;DHT22;8531;48.078;11.968;2022-11-22T03:53:15;3.70;99.90
16829;DHT22;8531;48.078;11.968;2022-11-22T03:55:41;3.80;99.90
16829;DHT22;8531;48.078;11.968;2022-11-22T03:58:07;3.70;99.90
16829;DHT22;8531;48.078;11.968;2022-11-22T04:00:33;3.80;99.90
16829;DHT22;8531;48.078;11.968;2022-11-22T04:02:59;3.80;99.90
16829;DHT22;8531;48.078;11.968;2022-11-22T04:05:25;3.80;99.90
16829;DHT22;8531;48.078;11.968;2022-11-22T04:07:50;3.80;99.90
16829;DHT22;8531;48.078;11.968;2022-11-22T04:10:24;3.90;99.90
16829;DHT22;8531;48.078;11.968;2022-11-22T04:12:50;3.90;99.90
16829;DHT22;8531;48.078;11.968;2022-11-22T04:15:16;4.00;99.90
16829;DHT22;8531;48.078;11.968;2022-11-22T04:17:43;4.00;99.90
16829;DHT22;8531;48.078;11.968;2022-11-22T04:22:58;4.10;99.90
16829;DHT22;8531;48.078;11.968;2022-11-22T04:25:25;4.20;99.90
16829;DHT22;8531;48.078;11.968;2022-11-22T04:27:52;4.10;99.90
16829;DHT22;8531;48.078;11.968;2022-11-22T04:30:17;3.90;99.90
16829;DHT22;8531;48.078;11.968;2022-11-22T04:32:43;3.80;99.90
16829;DHT22;8531;48.078;11.968;2022-11-22T04:35:15;3.70;99.90
16829;DHT22;8531;48.078;11.968;2022-11-22T04:37:50;3.70;99.90
16829;DHT22;8531;48.078;11.968;2022-11-22T04:40:16;3.80;99.90
16829;DHT22;8531;48.078;11.968;2022-11-22T04:42:42;3.80;99.90
16829;DHT22;8531;48.078;11.968;2022-11-22T04:45:26;3.70;99.90
16829;DHT22;8531;48.078;11.968;2022-11-22T04:47:52;3.70;99.90
16829;DHT22;8531;48.078;11.968;2022-11-22T04:50:23;3.70;99.90
16829;DHT22;8531;48.078;11.968;2022-11-22T04:53:08;3.70;99.90
16829;DHT22;8531;48.078;11.968;2022-11-22T04:55:34;3.70;99.90
16829;DHT22;8531;48.078;11.968;2022-11-22T04:58:00;3.70;99.90
16829;DHT22;8531;48.078;11.968;2022-11-22T05:00:29;3.70;99.90
16829;DHT22;8531;48.078;11.968;2022-11-22T05:02:56;3.70;99.90
16829;DHT22;8531;48.078;11.968;2022-11-22T05:05:22;3.70;99.90
16829;DHT22;8531;48.078;11.968;2022-11-22T05:07:48;3.80;99.90
16829;DHT22;8531;48.078;11.968;2022-11-22T05:10:15;3.80;99.90
16829;DHT22;8531;48.078;11.968;2022-11-22T05:12:41;3.80;99.90
16829;DHT22;8531;48.078;11.968;2022-11-22T05:15:11;3.80;99.90
16829;DHT22;8531;48.078;11.968;2022-11-22T05:17:37;3.80;99.90
16829;DHT22;8531;48.078;11.968;2022-11-22T05:20:04;3.80;99.90
16829;DHT22;8531;48.078;11.968;2022-11-22T05:22:30;3.90;99.90
16829;DHT22;8531;48.078;11.968;2022-11-22T05:25:14;3.90;99.90
16829;DHT22;8531;48.078;11.968;2022-11-22T05:27:40;3.90;99.90
16829;DHT22;8531;48.078;11.968;2022-11-22T05:30:06;3.90;99.90
16829;DHT22;8531;48.078;11.968;2022-11-22T05:32:32;3.90;99.90
16829;DHT22;8531;48.078;11.968;2022-11-22T05:34:58;3.90;99.90
16829;DHT22;8531;48.078;11.968;2022-11-22T05:37:24;4.00;99.90
16829;DHT22;8531;48.078;11.968;2022-11-22T05:39:50;4.00;99.90
16829;DHT22;8531;48.078;11.968;2022-11-22T05:42:16;3.90;99.90
16829;DHT22;8531;48.078;11.968;2022-11-22T05:44:42;3.90;99.90
16829;DHT22;8531;48.078;11.968;2022-11-22T05:47:08;4.00;99.90
16829;DHT22;8531;48.078;11.968;2022-11-22T05:49:34;4.00;99.90
16829;DHT22;8531;48.078;11.968;2022-11-22T05:52:00;3.90;99.90
16829;DHT22;8531;48.078;11.968;2022-11-22T05:54:26;3.80;99.90
16829;DHT22;8531;48.078;11.968;2022-11-22T05:56:52;3.90;99.90
16829;DHT22;8531;48.078;11.968;2022-11-22T05:59:17;3.90;99.90
16829;DHT22;8531;48.078;11.968;2022-11-22T06:01:43;3.90;99.90
16829;DHT22;8531;48.078;11.968;2022-11-22T06:04:09;3.90;99.90
16829;DHT22;8531;48.078;11.968;2022-11-22T06:06:35;3.90;99.90
16829;DHT22;8531;48.078;11.968;2022-11-22T06:09:01;3.90;99.90
16829;DHT22;8531;48.078;11.968;2022-11-22T06:11:27;4.00;99.90
16829;DHT22;8531;48.078;11.968;2022-11-22T06:13:55;3.90;99.90
16829;DHT22;8531;48.078;11.968;2022-11-22T06:16:22;3.90;99.90
16829;DHT22;8531;48.078;11.968;2022-11-22T06:18:48;4.00;99.90
16829;DHT22;8531;48.078;11.968;2022-11-22T06:21:19;4.00;99.90
16829;DHT22;8531;48.078;11.968;2022-11-22T06:23:45;3.90;99.90
16829;DHT22;8531;48.078;11.968;2022-11-22T06:26:14;4.00;99.90
16829;DHT22;8531;48.078;11.968;2022-11-22T06:28:40;3.90;99.90
16829;DHT22;8531;48.078;11.968;2022-11-22T06:31:16;4.00;99.90
16829;DHT22;8531;48.078;11.968;2022-11-22T06:33:42;3.90;99.90
16829;DHT22;8531;48.078;11.968;2022-11-22T06:36:14;3.90;99.90
16829;DHT22;8531;48.078;11.968;2022-11-22T06:38:41;3.90;99.90
16829;DHT22;8531;48.078;11.968;2022-11-22T06:41:19;3.90;99.90
16829;DHT22;8531;48.078;11.968;2022-11-22T06:43:47;3.90;99.90
16829;DHT22;8531;48.078;11.968;2022-11-22T06:46:13;4.00;99.90
16829;DHT22;8531;48.078;11.968;2022-11-22T06:48:40;4.10;99.90
16829;DHT22;8531;48.078;11.968;2022-11-22T06:51:24;4.20;99.90
16829;DHT22;8531;48.078;11.968;2022-11-22T06:53:50;4.20;99.90
16829;DHT22;8531;48.078;11.968;2022-11-22T06:56:19;4.30;99.90
16829;DHT22;8531;48.078;11.968;2022-11-22T06:58:45;4.30;99.90
16829;DHT22;8531;48.078;11.968;2022-11-22T07:01:17;4.30;99.90
16829;DHT22;8531;48.078;11.968;2022-11-22T07:03:43;4.30;99.90
16829;DHT22;8531;48.078;11.968;2022-11-22T07:06:11;4.40;99.90
16829;DHT22;8531;48.078;11.968;2022-11-22T07:08:37;4.40;99.90
16829;DHT22;8531;48.078;11.968;2022-11-22T07:11:04;4.40;99.90
16829;DHT22;8531;48.078;11.968;2022-11-22T07:13:31;4.30;99.90
16829;DHT22;8531;48.078;11.968;2022-11-22T07:15:58;4.40;99.90
16829;DHT22;8531;48.078;11.968;2022-11-22T07:18:24;4.40;99.90
16829;DHT22;8531;48.078;11.968;2022-11-22T07:20:50;4.40;99.90
16829;DHT22;8531;48.078;11.968;2022-11-22T07:23:16;4.50;99.90
16829;DHT22;8531;48.078;11.968;2022-11-22T07:25:48;4.40;99.90
16829;DHT22;8531;48.078;11.968;2022-11-22T07:28:14;4.40;99.90
16829;DHT22;8531;48.078;11.968;2022-11-22T07:30:41;4.40;99.90
16829;DHT22;8531;48.078;11.968;2022-11-22T07:33:08;4.50;99.90
16829;DHT22;8531;48.078;11.968;2022-11-22T07:35:34;4.50;99.90
16829;DHT22;8531;48.078;11.968;2022-11-22T07:38:00;4.50;99.90
16829;DHT22;8531;48.078;11.968;2022-11-22T07:40:26;4.60;99.90
16829;DHT22;8531;48.078;11.968;2022-11-22T07:42:52;4.60;99.90
16829;DHT22;8531;48.078;11.968;2022-11-22T07:45:18;4.60;99.90
16829;DHT22;8531;48.078;11.968;2022-11-22T07:47:44;4.60;99.90
16829;DHT22;8531;48.078;11.968;2022-11-22T07:50:09;4.60;99.90
16829;DHT22;8531;48.078;11.968;2022-11-22T07:52:36;4.60;99.90
16829;DHT22;8531;48.078;11.968;2022-11-22T07:55:01;4.60;99.90
16829;DHT22;8531;48.078;11.968;2022-11-22T07:57:27;4.60;99.90
16829;DHT22;8531;48.078;11.968;2022-11-22T07:59:53;4.60;99.90
16829;DHT22;8531;48.078;11.968;2022-11-22T08:02:19;4.60;99.90
16829;DHT22;8531;48.078;11.968;2022-11-22T08:04:44;4.70;99.90
16829;DHT22;8531;48.078;11.968;2022-11-22T08:07:10;4.70;99.90
16829;DHT22;8531;48.078;11.968;2022-11-22T08:09:36;4.80;99.90
16829;DHT22;8531;48.078;11.968;2022-11-22T08:12:02;4.80;99.90
16829;DHT22;8531;48.078;11.968;2022-11-22T08:14:28;4.80;99.90
16829;DHT22;8531;48.078;11.968;2022-11-22T08:16:54;4.90;99.90
16829;DHT22;8531;48.078;11.968;2022-11-22T08:19:19;4.90;99.90
16829;DHT22;8531;48.078;11.968;2022-11-22T08:21:47;5.00;99.90
16829;DHT22;8531;48.078;11.968;2022-11-22T08:24:14;5.10;99.90
16829;DHT22;8531;48.078;11.968;2022-11-22T08:26:40;5.10;99.90
16829;DHT22;8531;48.078;11.968;2022-11-22T08:29:08;5.10;99.90
16829;DHT22;8531;48.078;11.968;2022-11-22T08:31:34;5.10;99.90
16829;DHT22;8531;48.078;11.968;2022-11-22T08:33:59;5.20;99.90
16829;DHT22;8531;48.078;11.968;2022-11-22T08:36:26;5.30;99.90
16829;DHT22;8531;48.078;11.968;2022-11-22T08:38:52;5.30;99.90
16829;DHT22;8531;48.078;11.968;2022-11-22T08:41:18;5.30;99.90
16829;DHT22;8531;48.078;11.968;2022-11-22T08:43:44;5.40;99.90
16829;DHT22;8531;48.078;11.968;2022-11-22T08:46:10;5.50;99.90
16829;DHT22;8531;48.078;11.968;2022-11-22T08:48:37;5.60;99.90
16829;DHT22;8531;48.078;11.968;2022-11-22T08:51:05;5.60;99.90
16829;DHT22;8531;48.078;11.968;2022-11-22T08:53:33;5.70;99.90
16829;DHT22;8531;48.078;11.968;2022-11-22T08:56:00;5.70;99.90
16829;DHT22;8531;48.078;11.968;2022-11-22T08:58:28;5.80;99.90
16829;DHT22;8531;48.078;11.968;2022-11-22T09:00:55;5.80;99.90
16829;DHT22;8531;48.078;11.968;2022-11-22T09:03:21;5.80;99.90
16829;DHT22;8531;48.078;11.968;2022-11-22T09:05:46;5.80;99.90
16829;DHT22;8531;48.078;11.968;2022-11-22T09:08:12;5.90;99.90
16829;DHT22;8531;48.078;11.968;2022-11-22T09:10:38;5.90;99.90
16829;DHT22;8531;48.078;11.968;2022-11-22T09:13:03;5.90;99.90
16829;DHT22;8531;48.078;11.968;2022-11-22T09:15:29;6.00;99.90
16829;DHT22;8531;48.078;11.968;2022-11-22T09:18:02;5.90;99.90
16829;DHT22;8531;48.078;11.968;2022-11-22T09:20:27;6.00;99.90
16829;DHT22;8531;48.078;11.968;2022-11-22T09:22:53;6.00;99.90
16829;DHT22;8531;48.078;11.968;2022-11-22T09:25:19;6.10;99.90
16829;DHT22;8531;48.078;11.968;2022-11-22T09:27:45;6.10;99.90
16829;DHT22;8531;48.078;11.968;2022-11-22T09:30:11;6.00;99.90
16829;DHT22;8531;48.078;11.968;2022-11-22T09:32:37;6.00;99.90
16829;DHT22;8531;48.078;11.968;2022-11-22T09:35:02;6.10;99.90
16829;DHT22;8531;48.078;11.968;2022-11-22T09:37:30;6.10;99.90
16829;DHT22;8531;48.078;11.968;2022-11-22T09:39:56;6.10;99.90
16829;DHT22;8531;48.078;11.968;2022-11-22T09:42:46;6.20;99.90
16829;DHT22;8531;48.078;11.968;2022-11-22T09:45:24;6.10;99.90
16829;DHT22;8531;48.078;11.968;2022-11-22T09:48:13;6.10;99.90
16829;DHT22;8531;48.078;11.968;2022-11-22T09:51:16;6.10;99.90
16829;DHT22;8531;48.078;11.968;2022-11-22T09:56:18;6.10;99.90
16829;DHT22;8531;48.078;11.968;2022-11-22T09:58:48;6.10;99.90
16829;DHT22;8531;48.078;11.968;2022-11-22T10:06:24;6.00;99.90
16829;DHT22;8531;48.078;11.968;2022-11-22T10:11:37;6.10;99.90
16829;DHT22;8531;48.078;11.968;2022-11-22T10:16:52;6.10;99.90
16829;DHT22;8531;48.078;11.968;2022-11-22T10:19:34;6.20;99.90
16829;DHT22;8531;48.078;11.968;2022-11-22T10:22:09;6.20;99.90
16829;DHT22;8531;48.078;11.968;2022-11-22T10:24:35;6.30;99.90
16829;DHT22;8531;48.078;11.968;2022-11-22T10:27:01;6.30;99.90
16829;DHT22;8531;48.078;11.968;2022-11-22T10:29:40;6.30;99.90
16829;DHT22;8531;48.078;11.968;2022-11-22T10:32:31;6.30;99.90
16829;DHT22;8531;48.078;11.968;2022-11-22T10:35:22;6.30;99.90
16829;DHT22;8531;48.078;11.968;2022-11-22T10:40:53;6.40;99.90
16829;DHT22;8531;48.078;11.968;2022-11-22T10:46:08;6.40;99.90
16829;DHT22;8531;48.078;11.968;2022-11-22T10:54:44;6.20;99.90
16829;DHT22;8531;48.078;11.968;2022-11-22T11:04:54;6.20;99.90
16829;DHT22;8531;48.078;11.968;2022-11-22T11:07:21;6.30;99.90
16829;DHT22;8531;48.078;11.968;2022-11-22T11:10:02;6.30;99.90
16829;DHT22;8531;48.078;11.968;2022-11-22T11:12:49;6.40;99.90
16829;DHT22;8531;48.078;11.968;2022-11-22T11:15:35;6.40;99.90
16829;DHT22;8531;48.078;11.968;2022-11-22T11:18:06;6.40;99.90
16829;DHT22;8531;48.078;11.968;2022-11-22T11:20:37;6.40;99.90
16829;DHT22;8531;48.078;11.968;2022-11-22T11:23:05;6.40;99.90
16829;DHT22;8531;48.078;11.968;2022-11-22T11:25:36;6.50;99.90
16829;DHT22;8531;48.078;11.968;2022-11-22T11:28:15;6.40;99.90
16829;DHT22;8531;48.078;11.968;2022-11-22T11:33:19;6.30;99.90
16829;DHT22;8531;48.078;11.968;2022-11-22T11:35:46;6.20;99.90
16829;DHT22;8531;48.078;11.968;2022-11-22T11:38:31;6.10;99.90
16829;DHT22;8531;48.078;11.968;2022-11-22T11:43:41;6.10;99.90
16829;DHT22;8531;48.078;11.968;2022-11-22T11:46:28;6.00;99.90
16829;DHT22;8531;48.078;11.968;2022-11-22T11:49:15;6.00;99.90
16829;DHT22;8531;48.078;11.968;2022-11-22T11:51:46;6.00;99.90
16829;DHT22;8531;48.078;11.968;2022-11-22T11:54:19;6.10;99.90
16829;DHT22;8531;48.078;11.968;2022-11-22T11:56:49;6.10;99.90
16829;DHT22;8531;48.078;11.968;2022-11-22T12:02:14;6.10;99.90
16829;DHT22;8531;48.078;11.968;2022-11-22T12:07:45;6.10;99.90
16829;DHT22;8531;48.078;11.968;2022-11-22T12:16:00;6.10;99.90
16829;DHT22;8531;48.078;11.968;2022-11-22T12:18:49;6.20;99.90
16829;DHT22;8531;48.078;11.968;2022-11-22T12:21:21;6.20;99.90
16829;DHT22;8531;48.078;11.968;2022-11-22T12:26:20;6.20;99.90
16829;DHT22;8531;48.078;11.968;2022-11-22T12:28:46;6.20;99.90
16829;DHT22;8531;48.078;11.968;2022-11-22T12:33:49;6.20;99.90
16829;DHT22;8531;48.078;11.968;2022-11-22T12:36:21;6.10;99.90
16829;DHT22;8531;48.078;11.968;2022-11-22T12:38:50;6.10;99.90
16829;DHT22;8531;48.078;11.968;2022-11-22T12:41:19;6.10;99.90
16829;DHT22;8531;48.078;11.968;2022-11-22T12:43:58;6.10;99.90
16829;DHT22;8531;48.078;11.968;2022-11-22T12:46:50;5.90;99.90
16829;DHT22;8531;48.078;11.968;2022-11-22T12:52:08;5.80;99.90
16829;DHT22;8531;48.078;11.968;2022-11-22T12:54:54;5.70;99.90
16829;DHT22;8531;48.078;11.968;2022-11-22T12:57:35;5.70;99.90
16829;DHT22;8531;48.078;11.968;2022-11-22T13:00:16;5.70;99.90
16829;DHT22;8531;48.078;11.968;2022-11-22T13:02:53;5.70;99.90
16829;DHT22;8531;48.078;11.968;2022-11-22T13:10:48;5.80;99.90
16829;DHT22;8531;48.078;11.968;2022-11-22T13:16:01;5.70;99.90
16829;DHT22;8531;48.078;11.968;2022-11-22T13:18:31;5.70;99.90
16829;DHT22;8531;48.078;11.968;2022-11-22T13:21:15;5.70;99.90
16829;DHT22;8531;48.078;11.968;2022-11-22T13:24:08;5.70;99.90
16829;DHT22;8531;48.078;11.968;2022-11-22T13:26:47;5.70;99.90
16829;DHT22;8531;48.078;11.968;2022-11-22T13:29:24;5.60;99.90
16829;DHT22;8531;48.078;11.968;2022-11-22T13:35:02;5.60;99.90
16829;DHT22;8531;48.078;11.968;2022-11-22T13:37:29;5.60;99.90
16829;DHT22;8531;48.078;11.968;2022-11-22T13:40:29;5.60;99.90
16829;DHT22;8531;48.078;11.968;2022-11-22T13:51:05;5.70;99.90
16829;DHT22;8531;48.078;11.968;2022-11-22T13:53:42;5.80;99.90
16829;DHT22;8531;48.078;11.968;2022-11-22T14:20:21;5.50;99.90
16829;DHT22;8531;48.078;11.968;2022-11-22T14:31:34;5.70;99.90
16829;DHT22;8531;48.078;11.968;2022-11-22T14:34:25;5.60;99.90
16829;DHT22;8531;48.078;11.968;2022-11-22T14:50:04;5.70;99.90
16829;DHT22;8531;48.078;11.968;2022-11-22T14:52:33;5.70;99.90
16829;DHT22;8531;48.078;11.968;2022-11-22T14:55:03;5.70;99.90
16829;DHT22;8531;48.078;11.968;2022-11-22T14:57:34;5.70;99.90
16829;DHT22;8531;48.078;11.968;2022-11-22T15:14:07;5.70;99.90
16829;DHT22;8531;48.078;11.968;2022-11-22T15:16:37;5.70;99.90
16829;DHT22;8531;48.078;11.968;2022-11-22T15:19:04;5.70;99.90
16829;DHT22;8531;48.078;11.968;2022-11-22T15:21:34;5.80;99.90
16829;DHT22;8531;48.078;11.968;2022-11-22T15:24:00;5.80;99.90
16829;DHT22;8531;48.078;11.968;2022-11-22T15:26:29;5.80;99.90
16829;DHT22;8531;48.078;11.968;2022-11-22T15:28:57;5.90;99.90
16829;DHT22;8531;48.078;11.968;2022-11-22T15:31:27;5.90;99.90
16829;DHT22;8531;48.078;11.968;2022-11-22T15:33:55;5.90;99.90
16829;DHT22;8531;48.078;11.968;2022-11-22T15:37:16;5.90;99.90
16829;DHT22;8531;48.078;11.968;2022-11-22T15:39:26;5.80;99.90
16829;DHT22;8531;48.078;11.968;2022-11-22T15:41:53;5.80;99.90
16829;DHT22;8531;48.078;11.968;2022-11-22T15:44:21;5.80;99.90
16829;DHT22;8531;48.078;11.968;2022-11-22T15:46:48;5.70;99.90
16829;DHT22;8531;48.078;11.968;2022-11-22T15:49:16;5.70;99.90
16829;DHT22;8531;48.078;11.968;2022-11-22T15:51:54;5.70;99.90
16829;DHT22;8531;48.078;11.968;2022-11-22T15:54:40;5.70;99.90
16829;DHT22;8531;48.078;11.968;2022-11-22T15:57:33;5.60;99.90
16829;DHT22;8531;48.078;11.968;2022-11-22T16:00:00;5.70;99.90
16829;DHT22;8531;48.078;11.968;2022-11-22T16:02:28;5.70;99.90
16829;DHT22;8531;48.078;11.968;2022-11-22T16:05:02;5.70;99.90
16829;DHT22;8531;48.078;11.968;2022-11-22T16:07:45;5.60;99.90
16829;DHT22;8531;48.078;11.968;2022-11-22T16:10:21;5.60;99.90
16829;DHT22;8531;48.078;11.968;2022-11-22T16:12:47;5.60;99.90
16829;DHT22;8531;48.078;11.968;2022-11-22T16:15:31;5.60;99.90
16829;DHT22;8531;48.078;11.968;2022-11-22T16:18:16;5.70;99.90
16829;DHT22;8531;48.078;11.968;2022-11-22T16:21:21;5.70;99.90
16829;DHT22;8531;48.078;11.968;2022-11-22T16:23:45;5.70;99.90
16829;DHT22;8531;48.078;11.968;2022-11-22T16:28:55;5.60;99.90
16829;DHT22;8531;48.078;11.968;2022-11-22T16:33:48;5.40;99.90
16829;DHT22;8531;48.078;11.968;2022-11-22T16:36:16;5.40;99.90
16829;DHT22;8531;48.078;11.968;2022-11-22T16:38:43;5.50;99.90
16829;DHT22;8531;48.078;11.968;2022-11-22T16:43:42;5.50;99.90
16829;DHT22;8531;48.078;11.968;2022-11-22T16:46:11;5.50;99.90
16829;DHT22;8531;48.078;11.968;2022-11-22T16:48:38;5.60;99.90
16829;DHT22;8531;48.078;11.968;2022-11-22T16:51:12;5.60;99.90
16829;DHT22;8531;48.078;11.968;2022-11-22T16:56:08;5.50;99.90
16829;DHT22;8531;48.078;11.968;2022-11-22T16:58:37;5.40;99.90
16829;DHT22;8531;48.078;11.968;2022-11-22T17:01:03;5.40;99.90
16829;DHT22;8531;48.078;11.968;2022-11-22T17:03:29;5.40;99.90
16829;DHT22;8531;48.078;11.968;2022-11-22T17:05:58;5.40;99.90
16829;DHT22;8531;48.078;11.968;2022-11-22T17:08:24;5.40;99.90
16829;DHT22;8531;48.078;11.968;2022-11-22T17:10:51;5.50;99.90
16829;DHT22;8531;48.078;11.968;2022-11-22T17:13:21;5.40;99.90
16829;DHT22;8531;48.078;11.968;2022-11-22T17:15:50;5.40;99.90
16829;DHT22;8531;48.078;11.968;2022-11-22T17:18:15;5.30;99.90
16829;DHT22;8531;48.078;11.968;2022-11-22T17:20:41;5.30;99.90
16829;DHT22;8531;48.078;11.968;2022-11-22T17:23:15;5.20;99.90
16829;DHT22;8531;48.078;11.968;2022-11-22T17:25:43;5.20;99.90
16829;DHT22;8531;48.078;11.968;2022-11-22T17:28:09;5.10;99.90
16829;DHT22;8531;48.078;11.968;2022-11-22T17:30:34;5.20;99.90
16829;DHT22;8531;48.078;11.968;2022-11-22T17:33:00;5.10;99.90
16829;DHT22;8531;48.078;11.968;2022-11-22T17:35:26;5.10;99.90
16829;DHT22;8531;48.078;11.968;2022-11-22T17:37:53;5.20;99.90
16829;DHT22;8531;48.078;11.968;2022-11-22T17:40:20;5.10;99.90
16829;DHT22;8531;48.078;11.968;2022-11-22T17:42:45;5.10;99.90
16829;DHT22;8531;48.078;11.968;2022-11-22T17:45:11;5.10;99.90
16829;DHT22;8531;48.078;11.968;2022-11-22T17:47:37;5.20;99.90
16829;DHT22;8531;48.078;11.968;2022-11-22T17:50:03;5.20;99.90
16829;DHT22;8531;48.078;11.968;2022-11-22T17:52:28;5.20;99.90
16829;DHT22;8531;48.078;11.968;2022-11-22T17:54:54;5.10;99.90
16829;DHT22;8531;48.078;11.968;2022-11-22T17:57:20;5.10;99.90
16829;DHT22;8531;48.078;11.968;2022-11-22T17:59:45;5.10;99.90
16829;DHT22;8531;48.078;11.968;2022-11-22T18:02:11;5.10;99.90
16829;DHT22;8531;48.078;11.968;2022-11-22T18:04:37;5.10;99.90
16829;DHT22;8531;48.078;11.968;2022-11-22T18:07:04;5.20;99.90
16829;DHT22;8531;48.078;11.968;2022-11-22T18:09:30;5.20;99.90
16829;DHT22;8531;48.078;11.968;2022-11-22T18:11:56;5.20;99.90
16829;DHT22;8531;48.078;11.968;2022-11-22T18:14:22;5.20;99.90
16829;DHT22;8531;48.078;11.968;2022-11-22T18:16:48;5.20;99.90
16829;DHT22;8531;48.078;11.968;2022-11-22T18:19:14;5.10;99.90
16829;DHT22;8531;48.078;11.968;2022-11-22T18:21:40;5.00;99.90
16829;DHT22;8531;48.078;11.968;2022-11-22T18:24:06;5.00;99.90
16829;DHT22;8531;48.078;11.968;2022-11-22T18:26:33;5.00;99.90
16829;DHT22;8531;48.078;11.968;2022-11-22T18:28:59;5.00;99.90
16829;DHT22;8531;48.078;11.968;2022-11-22T18:31:25;5.00;99.90
16829;DHT22;8531;48.078;11.968;2022-11-22T18:33:51;5.00;99.90